Latest Weather Observations for West Roebuck

IDW60801

Issued at 3:05 am WST Friday 25 July 2014 (issued every 30 minutes, with the page automatically refreshed every 10 minutes)

About weather observations | Map of weather stations | Latest weather observations for WA | Other Formats
Station Details ID: 003096 Name: WEST ROEBUCK Lat: -17.90 Lon: 122.31 Height: 32.0 m
Data from the previous 72 hours. | See also: Recent months for locations in Western Australia
Date/Time
WST
Temp
°C
App
Temp
°C
Dew
Point
Rel
Hum
%
Delta-T
°C
Wind Press
QNH
hPa
Press
MSL
hPa
Rain
since 9 am
mm
Dir
 
Spd
km/h
Gust
km/h
Spd
kts
Gust
kts
25/03:00am 12.9 - - - - ESE 13 17 7 9 - - 0.0
25/02:30am 12.7 - - - - ESE 13 17 7 9 - - 0.0
25/02:00am 12.6 - - - - ESE 13 17 7 9 - - 0.0
25/01:30am 11.7 - - - - ESE 11 15 6 8 - - 0.0
25/01:00am 11.0 - - - - SE 9 11 5 6 - - 0.0
25/12:30am 11.9 - - - - ESE 11 13 6 7 - - 0.0
25/12:00am 12.7 - - - - ESE 7 9 4 5 - - 0.0
 
Date/Time
WST
Temp
°C
App
Temp
°C
Dew
Point
Rel
Hum
%
Delta-T
°C
Wind Press
QNH
hPa
Press
MSL
hPa
Rain
since 9 am
mm
Dir
 
Spd
km/h
Gust
km/h
Spd
kts
Gust
kts
24/11:30pm 13.8 - - - - ESE 13 17 7 9 - - 0.0
24/11:00pm 13.7 - - - - E 9 11 5 6 - - 0.0
24/10:30pm 15.0 - - - - E 11 15 6 8 - - 0.0
24/10:00pm 15.7 - - - - SE 11 13 6 7 - - 0.0
24/09:30pm 16.6 - - - - SE 11 15 6 8 - - 0.0
24/09:00pm 15.5 - - - - E 11 13 6 7 - - 0.0
24/08:30pm 17.2 - - - - SE 9 13 5 7 - - 0.0
24/08:00pm 17.9 - - - - SSE 11 13 6 7 - - 0.0
24/07:30pm 17.7 - - - - S 11 11 6 6 - - 0.0
24/07:00pm 17.7 - - - - SSW 7 9 4 5 - - 0.0
24/06:30pm 18.4 - - - - W 9 13 5 7 - - 0.0
24/06:00pm 19.8 - - - - WSW 11 13 6 7 - - 0.0
24/05:30pm 22.2 - - - - WSW 9 11 5 6 - - 0.0
24/05:00pm 24.5 - - - - WSW 9 13 5 7 - - 0.0
24/04:30pm 25.5 - - - - WSW 11 17 6 9 - - 0.0
24/04:00pm 26.2 - - - - SW 13 20 7 11 - - 0.0
24/03:30pm 27.0 - - - - SSW 15 20 8 11 - - 0.0
24/03:00pm 27.0 - - - - S 15 20 8 11 - - 0.0
24/02:30pm 27.5 - - - - S 15 22 8 12 - - 0.0
24/02:00pm 27.6 - - - - S 15 20 8 11 - - 0.0
24/01:30pm 26.9 - - - - S 15 24 8 13 - - 0.0
24/01:00pm 26.8 - - - - S 15 24 8 13 - - 0.0
24/12:30pm 26.7 - - - - S 17 26 9 14 - - 0.0
24/12:00pm 26.5 - - - - ESE 15 28 8 15 - - 0.0
24/11:30am 26.0 - - - - SSE 15 26 8 14 - - 0.0
24/11:00am 25.4 - - - - ESE 17 28 9 15 - - 0.0
24/10:30am 24.5 - - - - SE 20 30 11 16 - - 0.0
24/10:00am 23.4 - - - - ESE 17 26 9 14 - - 0.0
24/09:30am 22.6 - - - - ESE 19 24 10 13 - - 0.0
24/09:00am 20.9 - - - - ESE 20 30 11 16 - - 0.0
24/08:30am 19.6 - - - - ESE 19 24 10 13 - - 0.0
24/08:00am 17.2 - - - - ESE 11 17 6 9 - - 0.0
24/07:30am 16.6 - - - - ESE 9 11 5 6 - - 0.0
24/07:00am 15.8 - - - - ESE 7 11 4 6 - - 0.0
24/06:30am 15.0 - - - - ESE 11 17 6 9 - - 0.0
24/06:00am 14.3 - - - - E 9 13 5 7 - - 0.0
24/05:30am 14.1 - - - - ESE 13 15 7 8 - - 0.0
24/05:00am 13.5 - - - - ESE 11 15 6 8 - - 0.0
24/04:30am 15.1 - - - - SE 11 13 6 7 - - 0.0
24/04:00am 15.6 - - - - ESE 9 13 5 7 - - 0.0
24/03:30am 16.3 - - - - SE 11 15 6 8 - - 0.0
24/03:00am 16.0 - - - - SE 11 13 6 7 - - 0.0
24/02:30am 15.6 - - - - ESE 9 11 5 6 - - 0.0
24/02:00am 16.6 - - - - SE 11 13 6 7 - - 0.0
24/01:30am 17.6 - - - - SE 9 11 5 6 - - 0.0
24/01:00am 18.1 - - - - SE 11 13 6 7 - - 0.0
24/12:30am 18.5 - - - - SE 11 19 6 10 - - 0.0
24/12:00am 17.9 - - - - SE 9 13 5 7 - - 0.0
 
Date/Time
WST
Temp
°C
App
Temp
°C
Dew
Point
Rel
Hum
%
Delta-T
°C
Wind Press
QNH
hPa
Press
MSL
hPa
Rain
since 9 am
mm
Dir
 
Spd
km/h
Gust
km/h
Spd
kts
Gust
kts
23/11:30pm 18.1 - - - - SE 11 13 6 7 - - 0.0
23/11:00pm 18.6 - - - - SE 9 13 5 7 - - 0.0
23/10:30pm 19.0 - - - - SSE 9 13 5 7 - - 0.0
23/10:00pm 19.4 - - - - SE 9 9 5 5 - - 0.0
23/09:30pm 19.1 - - - - SSE 7 9 4 5 - - 0.0
23/09:00pm 20.1 - - - - SSE 9 11 5 6 - - 0.0
23/08:30pm 19.9 - - - - WSW 7 9 4 5 - - 0.0
23/08:00pm 20.1 - - - - WSW 9 11 5 6 - - 0.0
23/07:30pm 20.2 - - - - WSW 11 13 6 7 - - 0.0
23/07:00pm 20.4 - - - - WSW 9 11 5 6 - - 0.0
23/06:30pm 21.3 - - - - WSW 9 11 5 6 - - 0.0
23/06:00pm 22.1 - - - - WSW 11 15 6 8 - - 0.0
23/05:30pm 23.4 - - - - WSW 15 24 8 13 - - 0.0
23/05:00pm 25.5 - - - - WSW 15 20 8 11 - - 0.0
23/04:30pm 28.2 - - - - SW 15 22 8 12 - - 0.0
23/04:00pm 29.1 - - - - WSW 17 24 9 13 - - 0.0
23/03:30pm 30.0 - - - - SW 15 20 8 11 - - 0.0
23/03:00pm 29.9 - - - - SW 17 24 9 13 - - 0.0
23/02:30pm 30.0 - - - - SW 17 24 9 13 - - 0.0
23/02:00pm 30.8 - - - - SSW 15 24 8 13 - - 0.0
23/01:30pm 30.6 - - - - S 7 26 4 14 - - 0.0
23/01:00pm 30.8 - - - - NNE 6 13 3 7 - - 0.0
23/12:30pm 30.3 - - - - NE 7 17 4 9 - - 0.0
23/12:00pm 30.4 - - - - ENE 11 19 6 10 - - 0.0
23/11:30am 29.2 - - - - E 11 20 6 11 - - 0.0
23/11:00am 28.7 - - - - ESE 13 20 7 11 - - 0.0
23/10:30am 27.6 - - - - ESE 13 19 7 10 - - 0.0
23/10:00am 26.4 - - - - ESE 11 17 6 9 - - 0.0
23/09:30am 25.4 - - - - ESE 15 22 8 12 - - 0.0
23/09:00am 24.4 - - - - SE 9 15 5 8 - - 0.0
23/08:30am 22.4 - - - - SE 11 15 6 8 - - 0.0
23/08:00am 20.7 - - - - E 4 7 2 4 - - 0.0
23/07:30am 18.6 - - - - CALM 0 0 0 0 - - 0.0
23/07:00am 16.4 - - - - CALM 0 0 0 0 - - 0.0
23/06:30am 16.0 - - - - CALM 0 0 0 0 - - 0.0
23/06:00am 16.8 - - - - E 6 7 3 4 - - 0.0
23/05:30am 16.7 - - - - ESE 6 7 3 4 - - 0.0
23/05:00am 17.5 - - - - SE 7 9 4 5 - - 0.0
23/04:30am 17.7 - - - - SSE 7 9 4 5 - - 0.0
23/04:00am 18.0 - - - - S 9 9 5 5 - - 0.0
23/03:30am 18.2 - - - - S 7 9 4 5 - - 0.0
23/03:00am 18.4 - - - - S 7 9 4 5 - - 0.0
23/02:30am 18.5 - - - - SSE 7 11 4 6 - - 0.0
23/02:00am 18.5 - - - - S 9 9 5 5 - - 0.0
23/01:30am 17.9 - - - - SSW 7 9 4 5 - - 0.0
23/01:00am 17.8 - - - - SW 7 9 4 5 - - 0.0
23/12:30am 17.5 - - - - SW 7 9 4 5 - - 0.0
23/12:00am 17.7 - - - - SW 6 7 3 4 - - 0.0
 
Date/Time
WST
Temp
°C
App
Temp
°C
Dew
Point
Rel
Hum
%
Delta-T
°C
Wind Press
QNH
hPa
Press
MSL
hPa
Rain
since 9 am
mm
Dir
 
Spd
km/h
Gust
km/h
Spd
kts
Gust
kts
22/11:30pm 18.3 - - - - SW 7 9 4 5 - - 0.0
22/11:00pm 19.1 - - - - SW 7 7 4 4 - - 0.0
22/10:30pm 20.1 - - - - SW 7 7 4 4 - - 0.0
22/10:00pm 20.8 - - - - SW 9 11 5 6 - - 0.0
22/09:30pm 21.1 - - - - SW 7 9 4 5 - - 0.0
22/09:00pm 20.8 - - - - WSW 7 9 4 5 - - 0.0
22/08:30pm 20.8 - - - - WSW 6 7 3 4 - - 0.0
22/08:00pm 20.4 - - - - W 7 7 4 4 - - 0.0
22/07:30pm 20.8 - - - - WSW 7 9 4 5 - - 0.0
22/07:00pm 21.1 - - - - SW 7 13 4 7 - - 0.0
22/06:30pm 21.5 - - - - SW 6 7 3 4 - - 0.0
22/06:00pm 22.6 - - - - SW 7 9 4 5 - - 0.0
22/05:30pm 24.1 - - - - SW 9 11 5 6 - - 0.0
22/05:00pm 24.6 - - - - WSW 11 17 6 9 - - 0.0
22/04:30pm 25.8 - - - - WSW 15 24 8 13 - - 0.0
22/04:00pm 26.6 - - - - SW 15 22 8 12 - - 0.0
22/03:30pm 27.0 - - - - WSW 17 26 9 14 - - 0.0
22/03:00pm 28.0 - - - - SW 22 26 12 14 - - 0.0
22/02:30pm 28.6 - - - - W 20 28 11 15 - - 0.0
22/02:00pm 29.6 - - - - W 17 24 9 13 - - 0.0
22/01:30pm 29.0 - - - - WNW 19 26 10 14 - - 0.0
22/01:00pm 28.9 - - - - WSW 20 28 11 15 - - 0.0
22/12:30pm 29.6 - - - - WSW 17 24 9 13 - - 0.0
22/12:00pm 28.9 - - - - W 19 28 10 15 - - 0.0
22/11:30am 29.1 - - - - W 17 30 9 16 - - 0.0
22/11:00am 28.4 - - - - WNW 15 22 8 12 - - 0.0
22/10:30am 27.9 - - - - WNW 9 17 5 9 - - 0.0
22/10:00am 26.2 - - - - W 15 22 8 12 - - 0.0
22/09:30am 25.9 - - - - W 9 15 5 8 - - 0.0
22/09:00am 23.7 - - - - N 2 7 1 4 - - 0.0
22/08:30am 22.4 - - - - CALM 0 0 0 0 - - 0.0
22/08:00am 21.3 - - - - CALM 0 0 0 0 - - 0.0
22/07:30am 20.2 - - - - ENE 2 6 1 3 - - 0.0
22/07:00am 18.8 - - - - ENE 2 6 1 3 - - 0.0
22/06:30am 17.7 - - - - ENE 4 6 2 3 - - 0.0
22/06:00am 17.7 - - - - NNE 6 6 3 3 - - 0.0
22/05:30am 17.9 - - - - N 6 7 3 4 - - 0.0
22/05:00am 18.2 - - - - CALM 0 0 0 0 - - 0.0
22/04:30am 18.6 - - - - CALM 0 0 0 0 - - 0.0
22/04:00am 18.5 - - - - N 7 9 4 5 - - 0.0
22/03:30am 18.4 - - - - N 9 11 5 6 - - 0.0

Other Formats:

Comma delimited format used in spreadsheet applications
http://www.bom.gov.au/fwo/IDW60801/IDW60801.95204.axf

JavaScript Object Notation format (JSON) in row-major order
http://www.bom.gov.au/fwo/IDW60801/IDW60801.95204.json